Time;durP1;ratioP1;P1;durP2;ratioP2;P2;SDS_P1;SDS_P2;PMS_P1;PMS_P2;Temp;Humidity;BMP_temperature;BMP_pressure;BME280_temperature;BME280_humidity;BME280_pressure;Samples;Min_cycle;Max_cycle;Signal;HPM_P1;HPM_P2
2022/06/26 00:01:38;;;;;;;7.70;2.28;;;;;;;19.67;70.38;95411.34;5027787;28;20041;-84
2022/06/26 00:04:04;;;;;;;5.07;2.25;;;;;;;19.56;70.84;95413.81;5029822;28;20479;-85
2022/06/26 00:06:29;;;;;;;5.95;2.22;;;;;;;19.50;70.80;95406.59;5029610;28;20025;-85
2022/06/26 00:08:55;;;;;;;5.25;2.38;;;;;;;19.49;70.90;95410.38;5027646;28;20048;-85
2022/06/26 00:11:20;;;;;;;4.25;2.05;;;;;;;19.44;71.33;95407.53;5011371;28;20034;-84
2022/06/26 00:13:46;;;;;;;10.10;2.35;;;;;;;19.52;71.19;95408.00;5028454;28;20029;-85
2022/06/26 00:16:11;;;;;;;4.78;2.33;;;;;;;19.45;71.39;95401.84;5027638;28;20025;-84
2022/06/26 00:18:37;;;;;;;5.47;2.42;;;;;;;19.41;71.57;95403.34;5011398;28;20026;-84
2022/06/26 00:21:03;;;;;;;6.43;2.10;;;;;;;19.47;71.34;95409.78;5029448;28;20041;-85
2022/06/26 00:23:28;;;;;;;4.50;2.00;;;;;;;19.36;71.44;95408.69;5027670;28;20037;-84
2022/06/26 00:25:54;;;;;;;5.55;2.30;;;;;;;19.28;71.57;95399.00;5029781;28;20435;-84
2022/06/26 00:28:19;;;;;;;6.35;2.42;;;;;;;19.39;71.19;95400.88;4994407;28;20037;-84
2022/06/26 00:30:45;;;;;;;6.00;2.85;;;;;;;19.39;70.97;95400.88;5027602;28;20311;-85
2022/06/26 00:33:11;;;;;;;8.27;2.42;;;;;;;19.49;70.54;95410.38;5028805;28;20101;-84
2022/06/26 00:35:36;;;;;;;6.70;3.05;;;;;;;19.48;70.75;95405.97;5010602;28;20106;-85
2022/06/26 00:38:01;;;;;;;5.70;2.50;;;;;;;19.43;70.92;95401.25;5028944;28;20484;-84
2022/06/26 00:40:27;;;;;;;6.57;3.33;;;;;;;19.50;70.88;95406.59;5028026;28;20026;-85
2022/06/26 00:42:52;;;;;;;5.18;2.80;;;;;;;19.43;70.18;95394.97;5028246;28;20033;-85
2022/06/26 00:45:18;;;;;;;5.28;2.30;;;;;;;19.45;70.25;95396.41;5026981;28;20431;-84
2022/06/26 00:47:43;;;;;;;8.15;2.80;;;;;;;19.43;70.21;95400.41;5028133;28;20052;-85
2022/06/26 00:50:09;;;;;;;5.20;2.72;;;;;;;19.43;70.58;95394.97;5028989;28;20029;-84
2022/06/26 00:52:35;;;;;;;7.50;2.78;;;;;;;19.51;70.10;95400.91;5026886;28;20025;-84
2022/06/26 00:55:00;;;;;;;7.45;3.03;;;;;;;19.55;69.82;95404.00;5011154;28;20404;-84
2022/06/26 00:57:26;;;;;;;6.65;2.50;;;;;;;19.59;70.01;95393.44;5026468;28;20033;-85
2022/06/26 00:59:51;;;;;;;3.67;2.45;;;;;;;19.66;69.78;95399.63;5028592;28;20033;-85
2022/06/26 01:02:17;;;;;;;4.47;2.50;;;;;;;19.68;69.60;95393.94;5026379;28;20099;-85
2022/06/26 01:04:42;;;;;;;5.88;2.33;;;;;;;19.72;69.35;95397.84;5027350;28;20036;-85
2022/06/26 01:07:08;;;;;;;9.07;2.70;;;;;;;19.66;69.56;95415.94;5026704;28;20022;-84
2022/06/26 01:09:34;;;;;;;4.80;2.65;;;;;;;19.60;69.39;95411.44;5026950;28;20025;-86
2022/06/26 01:11:59;;;;;;;5.50;2.85;;;;;;;19.59;69.70;95416.03;5028720;28;20041;-84
2022/06/26 01:14:25;;;;;;;7.28;2.95;;;;;;;19.58;69.30;95422.56;5029705;28;20029;-85
2022/06/26 01:16:50;;;;;;;8.18;3.08;;;;;;;19.57;69.71;95418.16;5032045;28;20071;-85
2022/06/26 01:19:17;;;;;;;4.90;3.10;;;;;;;19.57;69.45;95422.78;5010456;28;20029;-85
2022/06/26 01:21:42;;;;;;;10.20;3.03;;;;;;;19.59;69.89;95421.50;5019686;28;20131;-85
2022/06/26 01:24:08;;;;;;;4.47;2.63;;;;;;;19.59;70.01;95413.31;5041699;28;20068;-84
2022/06/26 01:26:34;;;;;;;6.60;2.70;;;;;;;19.61;69.43;95422.09;5036429;28;20025;-84
2022/06/26 01:28:59;;;;;;;5.43;2.63;;;;;;;19.60;70.13;95416.88;5026421;28;20392;-84
2022/06/26 01:31:25;;;;;;;8.65;2.70;;;;;;;19.60;69.96;95428.56;5026383;28;20542;-86
2022/06/26 01:33:50;;;;;;;4.85;2.25;;;;;;;19.67;69.73;95419.50;5026306;28;20033;-84
2022/06/26 01:36:16;;;;;;;4.95;2.83;;;;;;;19.64;69.83;95418.06;5009373;28;20032;-83
2022/06/26 01:38:41;;;;;;;5.82;2.90;;;;;;;19.70;70.17;95417.13;5026172;28;20425;-83
2022/06/26 01:41:07;;;;;;;4.18;3.13;;;;;;;19.71;70.07;95424.22;4993061;28;20033;-84
2022/06/26 01:43:34;;;;;;;5.70;2.70;;;;;;;19.73;70.22;95432.16;5010205;28;20033;-84
2022/06/26 01:45:59;;;;;;;5.47;2.75;;;;;;;19.76;69.61;95423.53;5010729;28;20028;-84
2022/06/26 01:48:25;;;;;;;4.53;2.45;;;;;;;19.68;69.69;95426.59;5010975;28;20033;-84
2022/06/26 01:50:51;;;;;;;7.15;2.60;;;;;;;19.69;69.76;95436.41;5027422;28;20060;-86
2022/06/26 01:53:17;;;;;;;7.57;2.83;;;;;;;19.71;69.96;95439.72;5010645;28;20413;-85
2022/06/26 01:55:42;;;;;;;5.25;2.63;;;;;;;19.70;69.68;95438.06;5027958;28;20483;-86
2022/06/26 01:58:08;;;;;;;6.13;2.95;;;;;;;19.75;69.80;95449.06;5010002;28;20021;-85
2022/06/26 02:00:37;;;;;;;4.53;3.00;;;;;;;19.75;70.03;95440.88;4993771;28;20025;-86
2022/06/26 02:03:03;;;;;;;6.55;2.67;;;;;;;19.75;69.77;95435.44;5010042;28;20111;-84
2022/06/26 02:05:28;;;;;;;4.53;2.53;;;;;;;19.73;69.83;95446.56;5026379;28;20048;-85
2022/06/26 02:07:54;;;;;;;6.40;3.08;;;;;;;19.71;69.93;95451.44;5026553;28;20029;-84
2022/06/26 02:15:48;;;;;;;4.68;2.50;;;;;;;19.66;70.91;95445.03;5025437;28;20222;-85
2022/06/26 02:18:13;;;;;;;7.80;3.00;;;;;;;19.57;70.98;95450.00;5025906;28;20025;-85
2022/06/26 02:20:39;;;;;;;8.05;3.38;;;;;;;19.63;70.79;95455.34;5026099;28;20036;-82
2022/06/26 02:23:05;;;;;;;10.32;4.30;;;;;;;19.64;70.77;95461.59;5009381;28;20025;-84
2022/06/26 02:25:30;;;;;;;7.20;3.30;;;;;;;19.66;70.88;95453.19;5009046;28;20506;-86
2022/06/26 02:27:55;;;;;;;7.07;3.33;;;;;;;19.57;71.14;95450.81;5025448;28;20044;-84
2022/06/26 02:30:21;;;;;;;6.40;2.92;;;;;;;19.47;71.13;95445.13;5026879;28;20028;-84
2022/06/26 02:32:46;;;;;;;7.22;3.50;;;;;;;19.43;71.18;95449.34;5025058;28;20049;-84
2022/06/26 02:35:12;;;;;;;7.53;2.97;;;;;;;19.44;71.28;95457.28;5025357;28;20029;-84
2022/06/26 02:37:37;;;;;;;6.78;3.17;;;;;;;19.45;71.12;95455.41;5026484;28;20026;-85
2022/06/26 02:40:04;;;;;;;6.57;3.80;;;;;;;19.35;71.57;95459.53;5024876;28;20084;-86
2022/06/26 02:42:29;;;;;;;5.45;3.88;;;;;;;19.34;72.06;95466.03;5009263;28;20022;-84
2022/06/26 02:44:54;;;;;;;10.90;4.00;;;;;;;19.30;71.90;95467.53;5009047;28;20408;-85
2022/06/26 02:47:20;;;;;;;9.90;3.83;;;;;;;19.38;71.83;95469.09;5008790;28;20436;-85
2022/06/26 02:49:45;;;;;;;10.35;3.90;;;;;;;19.39;71.62;95460.69;5027454;28;20028;-83
2022/06/26 02:52:11;;;;;;;5.53;3.70;;;;;;;19.42;71.77;95453.16;5013287;28;20036;-82
2022/06/26 02:54:36;;;;;;;7.60;4.00;;;;;;;19.39;72.15;95449.81;5034693;28;20033;-86
2022/06/26 02:57:02;;;;;;;6.45;3.58;;;;;;;19.35;72.19;95454.09;5029937;28;20022;-84
2022/06/26 02:59:27;;;;;;;6.47;3.45;;;;;;;19.38;72.61;95458.22;5012800;28;20026;-85
2022/06/26 03:01:53;;;;;;;9.23;4.10;;;;;;;19.44;71.98;95464.63;5025803;28;20036;-84
2022/06/26 03:04:18;;;;;;;7.47;4.47;;;;;;;19.44;72.25;95462.72;5008503;28;20424;-85
2022/06/26 03:06:44;;;;;;;6.35;4.00;;;;;;;19.41;72.31;95467.81;5025119;28;20021;-85
2022/06/26 03:09:09;;;;;;;7.32;4.00;;;;;;;19.43;72.15;95476.56;5024703;28;20041;-86
2022/06/26 03:11:35;;;;;;;7.95;4.30;;;;;;;19.42;72.06;95480.34;5008522;28;20466;-86
2022/06/26 03:14:00;;;;;;;7.75;4.15;;;;;;;19.43;71.88;95473.84;5026191;28;20029;-85
2022/06/26 03:16:26;;;;;;;9.60;3.97;;;;;;;19.49;71.92;95475.66;5024223;28;20041;-84
2022/06/26 03:18:51;;;;;;;9.43;4.65;;;;;;;19.47;71.61;95475.03;4992257;28;20029;-85
2022/06/26 03:21:17;;;;;;;8.77;4.55;;;;;;;19.46;72.24;95474.19;5007272;28;20045;-85
2022/06/26 03:24:01;;;;;;;9.25;4.15;;;;;;;19.46;72.42;95479.63;5025005;28;20029;-85
2022/06/26 03:26:26;;;;;;;7.70;4.55;;;;;;;19.43;72.41;95482.00;5025092;28;20382;-85
2022/06/26 03:28:52;;;;;;;5.10;3.85;;;;;;;19.35;72.61;95485.88;5026432;28;20180;-85
2022/06/26 03:31:17;;;;;;;7.78;4.18;;;;;;;19.32;72.77;95484.47;5025118;28;20034;-87
2022/06/26 03:33:43;;;;;;;9.80;4.90;;;;;;;19.36;72.79;95493.00;5025094;28;20095;-84
2022/06/26 03:36:08;;;;;;;8.52;4.40;;;;;;;19.42;72.34;95491.22;5024639;28;20029;-86
2022/06/26 03:38:34;;;;;;;6.18;4.57;;;;;;;19.44;72.30;95495.34;5025174;28;20025;-85
2022/06/26 03:41:00;;;;;;;5.88;4.20;;;;;;;19.45;72.17;95488.03;5027530;28;20029;-85
2022/06/26 03:43:25;;;;;;;8.93;4.68;;;;;;;19.46;71.90;95495.97;5009321;28;20049;-84
2022/06/26 03:45:51;;;;;;;8.10;4.55;;;;;;;19.43;71.82;95498.31;5027059;28;20021;-84
2022/06/26 03:48:16;;;;;;;8.00;4.88;;;;;;;19.42;71.98;95499.38;5025648;28;20048;-85
2022/06/26 03:50:42;;;;;;;7.35;4.10;;;;;;;19.38;71.95;95490.84;5009692;28;20572;-85
2022/06/26 03:53:07;;;;;;;9.45;4.65;;;;;;;19.35;71.45;95497.59;5028654;28;20037;-87
2022/06/26 03:55:33;;;;;;;7.07;4.82;;;;;;;19.32;71.58;95498.06;5012111;28;20098;-84
2022/06/26 03:57:58;;;;;;;10.02;5.00;;;;;;;19.36;71.79;95498.44;5012276;28;20435;-84
2022/06/26 04:00:24;;;;;;;10.35;4.82;;;;;;;19.41;71.72;95505.88;5027684;28;20026;-84
2022/06/26 04:02:49;;;;;;;9.63;5.30;;;;;;;19.37;72.11;95506.34;5012112;28;20030;-85
2022/06/26 04:05:14;;;;;;;7.32;5.10;;;;;;;19.39;72.01;95509.66;5027869;28;20025;-88
2022/06/26 04:07:40;;;;;;;10.20;5.43;;;;;;;19.43;72.07;95509.19;5028765;28;20423;-84
2022/06/26 04:10:06;;;;;;;7.47;5.10;;;;;;;19.42;72.16;95502.09;5012844;28;20063;-84
2022/06/26 04:12:31;;;;;;;11.07;5.25;;;;;;;19.46;72.35;95497.88;5029894;28;20335;-85
2022/06/26 04:14:57;;;;;;;10.45;5.70;;;;;;;19.46;72.25;95503.31;5030334;28;20037;-86
2022/06/26 04:17:22;;;;;;;10.52;5.50;;;;;;;19.58;71.57;95504.16;5029309;28;20028;-85
2022/06/26 04:19:49;;;;;;;10.82;5.40;;;;;;;19.67;70.87;95498.41;5028892;28;20021;-87
2022/06/26 04:22:14;;;;;;;6.90;4.97;;;;;;;19.80;70.24;95502.78;5011184;28;20084;-87
2022/06/26 04:24:40;;;;;;;10.13;4.85;;;;;;;19.86;70.65;95502.66;5012828;28;20515;-87
2022/06/26 04:27:06;;;;;;;11.95;6.38;;;;;;;19.98;70.27;95501.84;5031450;28;20381;-86
2022/06/26 04:29:31;;;;;;;9.10;5.43;;;;;;;19.96;70.04;95501.25;5036669;28;20080;-86
2022/06/26 04:31:56;;;;;;;7.97;5.32;;;;;;;19.91;69.93;95503.88;5028373;28;20029;-85
2022/06/26 04:34:22;;;;;;;9.32;5.38;;;;;;;19.90;70.59;95508.47;5029181;28;20052;-85
2022/06/26 04:36:47;;;;;;;8.30;5.00;;;;;;;19.89;70.51;95510.34;5028539;28;20435;-84
2022/06/26 04:39:13;;;;;;;8.55;5.32;;;;;;;19.95;70.39;95521.38;5028814;28;20025;-84
2022/06/26 04:41:39;;;;;;;7.32;5.15;;;;;;;19.95;70.77;95513.22;5028677;28;20034;-84
2022/06/26 04:44:06;;;;;;;7.20;5.50;;;;;;;19.98;70.21;95510.03;5031963;28;20033;-84
2022/06/26 04:46:32;;;;;;;9.52;5.35;;;;;;;19.96;69.96;95509.41;5028102;28;20040;-86
2022/06/26 04:48:57;;;;;;;9.00;5.90;;;;;;;20.02;70.27;95505.78;5028943;28;20104;-86
2022/06/26 04:51:23;;;;;;;14.60;5.72;;;;;;;20.04;70.46;95508.28;5027754;28;20064;-85
2022/06/26 04:53:48;;;;;;;8.00;5.40;;;;;;;20.11;70.09;95509.84;5011625;28;20028;-84
2022/06/26 04:56:14;;;;;;;10.02;5.07;;;;;;;20.21;69.51;95508.41;5027896;28;20025;-85
2022/06/26 04:58:39;;;;;;;9.43;5.40;;;;;;;20.36;68.22;95514.19;5011077;28;20068;-88
2022/06/26 05:01:05;;;;;;;10.20;5.82;;;;;;;20.46;68.57;95516.34;5028252;28;20036;-86
2022/06/26 05:03:30;;;;;;;6.88;5.30;;;;;;;20.56;68.38;95521.19;5028327;28;20030;-88
2022/06/26 05:05:56;;;;;;;7.63;5.28;;;;;;;20.49;67.87;95520.50;5028030;28;20079;-85
2022/06/26 05:08:21;;;;;;;12.02;4.93;;;;;;;20.60;68.14;95521.53;5010895;28;20033;-85
2022/06/26 05:10:47;;;;;;;10.02;5.00;;;;;;;20.83;67.14;95523.38;5026813;28;20075;-87
2022/06/26 05:13:13;;;;;;;7.57;4.82;;;;;;;20.95;66.27;95522.56;5028862;28;20018;-85
2022/06/26 05:15:39;;;;;;;7.22;4.15;;;;;;;21.08;65.33;95521.47;5028309;28;20104;-86
2022/06/26 05:18:04;;;;;;;11.57;5.90;;;;;;;21.24;65.54;95533.50;5009899;28;20119;-86
2022/06/26 05:20:30;;;;;;;7.82;4.70;;;;;;;21.32;65.45;95535.03;5026672;28;20398;-85
2022/06/26 05:22:55;;;;;;;7.10;5.32;;;;;;;21.46;64.87;95539.13;5027548;28;20050;-85
2022/06/26 05:25:21;;;;;;;6.47;4.70;;;;;;;21.47;64.55;95531.75;5026574;28;20459;-86
2022/06/26 05:27:46;;;;;;;7.07;4.57;;;;;;;21.65;64.52;95540.81;5009709;28;20029;-84
2022/06/26 05:30:12;;;;;;;8.00;4.68;;;;;;;21.84;64.32;95545.00;5026867;28;20018;-85
2022/06/26 05:32:37;;;;;;;9.75;4.68;;;;;;;21.99;63.70;95543.59;5025903;28;20067;-88
2022/06/26 05:35:03;;;;;;;7.75;4.60;;;;;;;22.17;62.95;95552.63;5009869;28;20585;-87
2022/06/26 05:37:28;;;;;;;7.38;4.95;;;;;;;22.24;62.03;95550.56;5026631;28;20483;-85
2022/06/26 05:39:54;;;;;;;9.98;6.10;;;;;;;22.32;62.72;95550.16;5009876;28;20029;-85
2022/06/26 05:42:23;;;;;;;7.70;5.07;;;;;;;22.37;61.49;95554.03;5011516;28;20083;-84
2022/06/26 05:44:49;;;;;;;10.13;5.10;;;;;;;22.38;61.83;95552.94;5011161;28;20032;-87
2022/06/26 05:47:14;;;;;;;6.68;4.40;;;;;;;22.07;61.63;95554.13;5010400;28;20017;-86
2022/06/26 05:49:40;;;;;;;8.52;5.07;;;;;;;22.03;62.11;95554.88;5010189;28;20029;-87
2022/06/26 05:52:05;;;;;;;7.65;5.35;;;;;;;22.25;61.79;95554.94;5026657;28;20026;-85
2022/06/26 05:54:32;;;;;;;7.68;4.75;;;;;;;22.43;60.15;95566.69;5026275;28;20026;-86
2022/06/26 05:56:57;;;;;;;7.90;4.50;;;;;;;22.32;60.14;95563.81;5009462;28;20543;-85
2022/06/26 05:59:22;;;;;;;8.90;4.47;;;;;;;22.06;61.01;95563.41;5027095;28;20526;-85
2022/06/26 06:01:48;;;;;;;6.40;4.72;;;;;;;21.74;61.89;95566.63;5025144;28;20036;-85
2022/06/26 06:04:14;;;;;;;8.68;4.47;;;;;;;22.05;62.09;95566.38;5027173;28;20057;-85
2022/06/26 06:06:39;;;;;;;9.77;5.10;;;;;;;22.12;61.58;95560.75;5027740;28;20022;-87
2022/06/26 06:09:05;;;;;;;5.70;4.82;;;;;;;22.37;61.84;95559.50;5012763;28;20022;-85
2022/06/26 06:11:30;;;;;;;10.57;5.40;;;;;;;22.28;61.37;95567.31;5027754;28;20030;-86
2022/06/26 06:13:55;;;;;;;7.07;4.57;;;;;;;22.49;61.09;95565.69;5009297;28;20032;-86
2022/06/26 06:16:21;;;;;;;8.25;4.70;;;;;;;22.50;60.16;95558.34;5027748;28;20056;-86
2022/06/26 06:18:46;;;;;;;6.32;4.07;;;;;;;22.34;60.78;95569.84;5025956;28;20099;-86
2022/06/26 06:21:12;;;;;;;6.32;4.30;;;;;;;22.58;60.59;95564.22;5028177;28;20034;-87
2022/06/26 06:23:38;;;;;;;9.43;4.43;;;;;;;22.78;59.53;95565.59;5025915;28;20037;-86
2022/06/26 06:26:03;;;;;;;6.38;4.00;;;;;;;22.55;58.55;95564.72;5026222;28;20022;-85
2022/06/26 06:28:28;;;;;;;6.50;4.13;;;;;;;22.72;59.06;95569.34;5025441;28;20060;-85
2022/06/26 06:30:54;;;;;;;6.18;4.03;;;;;;;22.43;60.27;95566.69;5008980;28;20033;-86
2022/06/26 06:33:19;;;;;;;6.05;3.85;;;;;;;22.18;59.86;95571.50;5025201;28;20480;-87
2022/06/26 06:35:45;;;;;;;6.07;3.67;;;;;;;22.51;59.45;95568.19;5009256;28;20322;-87
2022/06/26 06:38:11;;;;;;;6.13;3.67;;;;;;;22.82;59.28;95563.19;5026671;28;20033;-86
2022/06/26 06:40:36;;;;;;;10.50;4.25;;;;;;;22.93;58.19;95566.88;5025054;28;20017;-86
2022/06/26 06:43:02;;;;;;;5.38;3.72;;;;;;;22.97;58.59;95565.31;4992751;28;20030;-86
2022/06/26 06:45:27;;;;;;;6.57;4.40;;;;;;;23.04;58.49;95571.41;5025167;28;20093;-86
2022/06/26 06:47:53;;;;;;;6.18;4.20;;;;;;;23.34;58.22;95570.13;5009256;28;20116;-84
2022/06/26 06:50:18;;;;;;;6.35;4.10;;;;;;;23.55;57.43;95573.13;5026168;28;20045;-85
2022/06/26 06:52:43;;;;;;;5.88;3.85;;;;;;;23.71;57.99;95567.84;5027049;28;20022;-87
2022/06/26 06:55:09;;;;;;;6.72;3.58;;;;;;;23.28;57.81;95565.69;5025304;28;20408;-87
2022/06/26 06:57:34;;;;;;;7.03;3.85;;;;;;;22.59;59.06;95575.97;5026644;28;20080;-85
2022/06/26 07:00:01;;;;;;;6.35;4.15;;;;;;;22.75;58.70;95574.31;5025205;28;20076;-86
2022/06/26 07:02:26;;;;;;;7.93;4.25;;;;;;;23.02;58.17;95562.63;5009269;28;20022;-87
2022/06/26 07:04:52;;;;;;;5.90;3.85;;;;;;;23.09;58.74;95565.19;4992534;28;20028;-85
2022/06/26 07:07:17;;;;;;;9.35;4.10;;;;;;;23.02;59.62;95565.38;5007789;28;20029;-87
2022/06/26 07:09:42;;;;;;;5.55;3.97;;;;;;;22.74;59.43;95569.09;5025047;28;20025;-86
2022/06/26 07:12:08;;;;;;;5.20;3.40;;;;;;;22.54;59.83;95573.97;5024254;28;20025;-86
2022/06/26 07:14:33;;;;;;;5.68;3.70;;;;;;;22.91;58.54;95571.81;5025237;28;20076;-86
2022/06/26 07:16:59;;;;;;;6.13;4.18;;;;;;;22.92;58.84;95571.56;5027080;28;20052;-87
2022/06/26 07:19:24;;;;;;;6.47;3.53;;;;;;;22.78;58.54;95573.00;4992127;28;20108;-87
2022/06/26 07:21:50;;;;;;;5.97;3.28;;;;;;;22.95;58.30;95562.00;5026202;28;20041;-87
2022/06/26 07:24:15;;;;;;;7.75;3.83;;;;;;;22.76;59.12;95567.78;5007998;28;20030;-86
2022/06/26 07:26:41;;;;;;;5.88;3.40;;;;;;;22.72;59.47;95564.72;5029231;28;20026;-88
2022/06/26 07:29:09;;;;;;;10.00;3.92;;;;;;;22.84;58.94;95561.84;5012137;28;20033;-88
2022/06/26 07:31:35;;;;;;;5.75;3.72;;;;;;;23.08;59.48;95564.38;5028899;28;20040;-86
2022/06/26 07:34:12;;;;;;;8.07;3.70;;;;;;;23.01;58.50;95560.16;5011917;28;20025;-86
2022/06/26 07:36:38;;;;;;;7.57;3.42;;;;;;;23.07;58.19;95565.44;5028925;28;20044;-85
2022/06/26 07:39:04;;;;;;;5.20;3.75;;;;;;;22.91;58.48;95555.41;5018935;28;20097;-86
2022/06/26 07:41:29;;;;;;;8.48;3.65;;;;;;;23.19;57.84;95557.13;5033717;28;20047;-87
2022/06/26 07:43:55;;;;;;;7.93;4.22;;;;;;;23.10;59.21;95550.44;5012536;28;20040;-88
2022/06/26 07:46:20;;;;;;;6.13;3.95;;;;;;;23.07;57.18;95557.22;4995248;28;20108;-87
2022/06/26 07:48:46;;;;;;;7.65;3.53;;;;;;;23.27;57.12;95555.84;5028859;28;20407;-86
2022/06/26 07:51:12;;;;;;;5.03;2.95;;;;;;;23.42;56.23;95544.28;5028259;28;20030;-86
2022/06/26 07:53:38;;;;;;;6.88;4.03;;;;;;;23.48;57.06;95547.91;5029444;28;20137;-87
2022/06/26 07:56:04;;;;;;;7.57;3.22;;;;;;;23.73;57.24;95559.38;5037416;28;20026;-86
2022/06/26 07:58:30;;;;;;;7.53;3.50;;;;;;;23.45;57.46;95548.41;5041591;28;20025;-86
2022/06/26 08:00:55;;;;;;;7.13;3.78;;;;;;;23.42;57.33;95555.22;5023262;28;20109;-85
2022/06/26 08:03:21;;;;;;;4.53;3.08;;;;;;;23.60;55.74;95553.22;5032437;28;20045;-86
2022/06/26 08:05:49;;;;;;;5.55;3.28;;;;;;;23.87;56.15;95551.56;5030110;28;20029;-86
2022/06/26 08:08:14;;;;;;;5.57;3.00;;;;;;;24.06;55.54;95552.84;5034126;28;20111;-86
2022/06/26 08:10:40;;;;;;;9.50;3.58;;;;;;;23.99;54.00;95548.69;5018335;28;20041;-87
2022/06/26 08:13:06;;;;;;;5.15;3.10;;;;;;;23.67;54.27;95548.38;5037095;28;20025;-85
2022/06/26 08:15:31;;;;;;;8.50;3.55;;;;;;;23.61;54.08;95545.81;5035854;28;20408;-86
2022/06/26 08:17:57;;;;;;;4.85;3.03;;;;;;;23.52;54.75;95546.28;5020476;28;20040;-87
2022/06/26 08:20:22;;;;;;;7.13;2.90;;;;;;;23.58;53.58;95552.66;5035798;28;20022;-86
2022/06/26 08:22:49;;;;;;;9.30;2.55;;;;;;;23.66;53.15;95552.19;5013927;28;20057;-86
2022/06/26 08:25:14;;;;;;;4.43;2.72;;;;;;;23.87;54.36;95551.56;5011635;28;20037;-86
2022/06/26 08:27:39;;;;;;;4.65;2.78;;;;;;;23.83;54.05;95554.00;5027867;28;20464;-85
2022/06/26 08:30:06;;;;;;;4.35;2.45;;;;;;;24.18;53.72;95549.94;5028719;28;20787;-87
2022/06/26 08:32:31;;;;;;;6.22;2.90;;;;;;;24.51;51.96;95555.41;5011385;28;20211;-87
2022/06/26 08:34:57;;;;;;;4.82;3.03;;;;;;;24.43;54.29;95556.72;5028846;28;20089;-85
2022/06/26 08:37:22;;;;;;;7.00;3.00;;;;;;;24.19;53.88;95554.34;5026772;28;20026;-86
2022/06/26 08:39:48;;;;;;;6.20;3.10;;;;;;;24.12;53.09;95553.69;4994660;28;20033;-87
2022/06/26 08:42:13;;;;;;;6.50;2.97;;;;;;;24.33;53.05;95556.63;5011159;28;20033;-88
2022/06/26 08:44:42;;;;;;;5.43;2.47;;;;;;;24.44;53.61;95552.06;4994562;28;20036;-86
2022/06/26 08:47:07;;;;;;;4.85;2.88;;;;;;;23.96;51.86;95560.97;5027067;28;20030;-86
2022/06/26 08:49:33;;;;;;;3.78;2.50;;;;;;;24.13;52.96;95551.81;5027476;28;20052;-84
2022/06/26 08:51:59;;;;;;;4.38;2.67;;;;;;;24.04;50.65;95551.44;5028393;28;20033;-85
2022/06/26 08:54:24;;;;;;;8.25;2.80;;;;;;;24.49;51.74;95549.34;5011422;28;20029;-87
2022/06/26 08:56:50;;;;;;;4.15;2.20;;;;;;;24.68;49.02;95557.19;5010864;28;20037;-86
2022/06/26 08:59:16;;;;;;;5.32;2.47;;;;;;;24.68;49.00;95546.19;5027673;28;20094;-86
2022/06/26 09:01:42;;;;;;;3.20;2.13;;;;;;;24.62;50.12;95541.78;5029125;28;20033;-87
2022/06/26 09:04:08;;;;;;;3.22;1.85;;;;;;;24.55;48.30;95542.81;5026866;28;20040;-87
2022/06/26 09:06:34;;;;;;;7.20;2.28;;;;;;;24.16;48.56;95537.59;5011189;28;20026;-87
2022/06/26 09:08:59;;;;;;;7.72;2.40;;;;;;;24.03;46.28;95530.63;5027457;28;20476;-86
2022/06/26 09:11:25;;;;;;;6.07;1.98;;;;;;;24.12;44.57;95528.25;5028791;28;20090;-85
2022/06/26 09:13:53;;;;;;;3.63;1.50;;;;;;;24.55;47.81;95529.09;5027715;28;20071;-84
2022/06/26 09:16:31;;;;;;;9.10;2.20;;;;;;;24.77;50.36;95533.63;5028760;28;20033;-87
2022/06/26 09:19:07;;;;;;;5.60;2.47;;;;;;;24.41;48.70;95528.75;5010930;28;20087;-86
2022/06/26 09:21:33;;;;;;;4.07;2.38;;;;;;;24.35;51.44;95524.31;5027905;28;20103;-87
2022/06/26 09:23:58;;;;;;;6.25;2.67;;;;;;;24.04;50.10;95529.53;5009814;28;20041;-85
2022/06/26 09:26:24;;;;;;;6.80;2.08;;;;;;;24.29;52.64;95531.69;5026334;28;20033;-86
2022/06/26 09:28:49;;;;;;;5.35;2.55;;;;;;;24.75;51.94;95524.84;5027886;28;20021;-85
2022/06/26 09:31:21;;;;;;;5.45;2.60;;;;;;;25.02;51.18;95531.34;4993153;28;20037;-86
2022/06/26 09:33:47;;;;;;;3.50;2.08;;;;;;;25.05;50.82;95528.84;5026350;28;20116;-86
2022/06/26 09:36:16;;;;;;;6.00;2.03;;;;;;;25.35;50.53;95531.16;5027890;28;20160;-86
2022/06/26 09:38:50;;;;;;;3.97;2.40;;;;;;;25.57;49.49;95528.19;5025812;28;20052;-87
2022/06/26 09:41:16;;;;;;;3.55;2.03;;;;;;;25.72;48.35;95532.09;5026330;28;20034;-86
2022/06/26 09:43:42;;;;;;;4.45;1.80;;;;;;;25.60;46.83;95529.59;5025927;28;20028;-88
2022/06/26 09:46:14;;;;;;;11.90;2.00;;;;;;;25.23;47.44;95537.69;5026204;28;20029;-87
2022/06/26 09:48:40;;;;;;;9.02;2.08;;;;;;;25.12;46.67;95538.75;5008488;28;20036;-87
2022/06/26 09:51:10;;;;;;;5.80;1.80;;;;;;;24.70;46.29;95538.53;5026120;28;20060;-87
2022/06/26 09:53:35;;;;;;;4.75;1.85;;;;;;;24.61;46.91;95538.19;5027584;28;20025;-87
2022/06/26 09:56:01;;;;;;;4.93;1.48;;;;;;;24.37;45.34;95541.34;5025819;28;20029;-87
2022/06/26 09:58:27;;;;;;;3.35;1.60;;;;;;;24.44;46.39;95530.97;5026419;28;20164;-88
2022/06/26 10:06:26;;;;;;;4.00;1.70;;;;;;;25.03;47.40;95531.06;5026383;28;20408;-88
2022/06/26 10:08:57;;;;;;;6.50;1.77;;;;;;;25.15;47.74;95530.81;5026024;28;20030;-87
2022/06/26 10:11:24;;;;;;;4.75;2.00;;;;;;;24.93;47.79;95528.25;5009843;28;20044;-86
2022/06/26 10:13:50;;;;;;;5.88;2.10;;;;;;;24.94;47.41;95524.41;5025303;28;20083;-86
2022/06/26 10:16:35;;;;;;;3.20;1.83;;;;;;;24.90;48.66;95521.41;4993013;28;20029;-87
2022/06/26 10:19:26;;;;;;;6.85;2.40;;;;;;;24.76;48.92;95521.00;5025682;28;20025;-87
2022/06/26 10:21:52;;;;;;;7.00;2.38;;;;;;;25.14;50.65;95511.88;5008857;28;20060;-85
2022/06/26 10:24:17;;;;;;;3.63;2.42;;;;;;;25.48;51.25;95505.97;5009626;28;20041;-87
2022/06/26 10:26:56;;;;;;;7.20;3.25;;;;;;;25.72;51.54;95502.72;5025314;28;20048;-87
2022/06/26 10:29:38;;;;;;;5.65;2.55;;;;;;;25.75;49.63;95502.19;5009722;28;20083;-87
2022/06/26 10:32:05;;;;;;;5.13;2.70;;;;;;;25.77;49.00;95500.00;5008703;28;20470;-87
2022/06/26 10:34:31;;;;;;;5.93;2.33;;;;;;;25.67;48.49;95500.81;5009250;28;20033;-86
2022/06/26 10:37:10;;;;;;;4.82;2.42;;;;;;;25.72;48.02;95491.75;5009341;28;20079;-86
2022/06/26 10:39:42;;;;;;;5.30;2.25;;;;;;;25.78;49.18;95490.66;5009747;28;20022;-86
2022/06/26 10:44:58;;;;;;;4.85;2.63;;;;;;;25.40;48.19;95485.34;5031449;28;19924;-87
2022/06/26 10:47:23;;;;;;;5.25;2.20;;;;;;;25.13;49.57;95491.88;5029374;28;20060;-87
2022/06/26 10:49:50;;;;;;;3.00;1.80;;;;;;;25.16;49.27;95487.75;5009259;28;20034;-88
2022/06/26 10:52:26;;;;;;;5.82;1.65;;;;;;;25.18;44.49;95489.13;5025865;28;20492;-87
2022/06/26 10:54:52;;;;;;;3.80;1.70;;;;;;;24.99;44.17;95483.28;5025293;28;20025;-86
2022/06/26 10:57:18;;;;;;;5.90;1.60;;;;;;;25.08;44.93;95480.03;5025878;28;20504;-88
2022/06/26 10:59:43;;;;;;;4.65;1.70;;;;;;;25.38;46.27;95475.72;4992226;28;20048;-88
2022/06/26 11:02:09;;;;;;;3.33;1.70;;;;;;;25.69;44.56;95486.81;5008282;28;20096;-85
2022/06/26 11:04:48;;;;;;;4.78;1.88;;;;;;;25.80;42.46;95474.72;5008885;28;20049;-88
2022/06/26 11:07:14;;;;;;;4.88;1.50;;;;;;;25.73;42.62;95481.59;5025033;28;20017;-88
2022/06/26 11:09:40;;;;;;;3.55;1.63;;;;;;;25.62;42.80;95480.72;5025079;28;20030;-88
2022/06/26 11:12:06;;;;;;;5.60;1.52;;;;;;;25.65;42.92;95481.03;5008837;28;20029;-87
2022/06/26 11:14:31;;;;;;;5.03;1.52;;;;;;;25.68;43.32;95479.66;5024256;28;20069;-86
2022/06/26 11:16:57;;;;;;;4.50;1.63;;;;;;;25.54;44.26;95471.09;5025314;28;20025;-86
2022/06/26 11:19:23;;;;;;;2.45;1.27;;;;;;;25.58;43.27;95479.63;5024579;28;20014;-86
2022/06/26 11:21:48;;;;;;;5.05;1.30;;;;;;;25.78;43.75;95476.09;5025089;28;20061;-85
2022/06/26 11:24:14;;;;;;;6.43;1.65;;;;;;;25.62;42.88;95475.25;5024928;28;20460;-86
2022/06/26 11:26:39;;;;;;;2.72;1.33;;;;;;;25.55;43.30;95487.28;5008680;28;20040;-85
2022/06/26 11:29:08;;;;;;;3.38;1.65;;;;;;;25.46;43.35;95483.44;5001631;28;20014;-84
2022/06/26 11:31:34;;;;;;;4.18;1.60;;;;;;;25.41;43.89;95480.66;5026687;28;20045;-85
2022/06/26 11:34:13;;;;;;;5.30;1.30;;;;;;;25.27;43.67;95475.72;5027156;28;20021;-86
2022/06/26 11:36:55;;;;;;;6.05;1.80;;;;;;;25.29;43.94;95473.50;5042248;28;20014;-86
2022/06/26 11:39:22;;;;;;;3.80;1.60;;;;;;;25.41;43.44;95484.25;5024935;28;20038;-86
2022/06/26 11:41:47;;;;;;;5.05;1.55;;;;;;;25.31;42.40;95476.81;5001452;28;20116;-85